Time;durP1;ratioP1;P1;durP2;ratioP2;P2;SDS_P1;SDS_P2;PMS_P1;PMS_P2;Temp;Humidity;BMP_temperature;BMP_pressure;BME280_temperature;BME280_humidity;BME280_pressure;Samples;Min_cycle;Max_cycle;Signal;HPM_P1;HPM_P2
2023/08/04 00:00:15;;;;;;;0.00;0.00;;;16.60;87.00;;;;;;5009391;28;20081;-71
2023/08/04 00:02:41;;;;;;;0.00;0.00;;;16.60;87.10;;;;;;5010601;28;20042;-71
2023/08/04 00:05:08;;;;;;;0.00;0.00;;;16.60;87.10;;;;;;5011137;28;20053;-70
2023/08/04 00:07:35;;;;;;;0.00;0.00;;;16.60;86.90;;;;;;4994170;28;20133;-70
2023/08/04 00:10:02;;;;;;;0.45;0.43;;;16.60;86.90;;;;;;5009481;28;20042;-71
2023/08/04 00:12:27;;;;;;;0.00;0.00;;;16.60;87.00;;;;;;5011150;28;20490;-71
2023/08/04 00:14:53;;;;;;;0.00;0.00;;;16.50;87.20;;;;;;5001742;28;20072;-70
2023/08/04 00:17:18;;;;;;;0.00;0.00;;;16.50;87.20;;;;;;5010470;28;20177;-70
2023/08/04 00:19:44;;;;;;;0.00;0.00;;;16.50;87.20;;;;;;5010867;28;20100;-70
2023/08/04 00:22:09;;;;;;;0.00;0.00;;;16.50;87.20;;;;;;5004729;28;20050;-70
2023/08/04 00:24:36;;;;;;;0.00;0.00;;;16.50;87.20;;;;;;5003098;28;20073;-71
2023/08/04 00:27:02;;;;;;;0.00;0.00;;;16.50;87.20;;;;;;5010749;28;20537;-71
2023/08/04 00:29:28;;;;;;;0.00;0.00;;;16.50;87.20;;;;;;5010170;28;20046;-70
2023/08/04 00:31:54;;;;;;;0.00;0.00;;;16.40;87.30;;;;;;5010199;28;20053;-70
2023/08/04 00:34:20;;;;;;;0.00;0.00;;;16.50;87.30;;;;;;5008590;28;20045;-70
2023/08/04 00:36:46;;;;;;;0.00;0.00;;;16.40;87.60;;;;;;5005071;28;20121;-70
2023/08/04 00:39:13;;;;;;;0.00;0.00;;;16.30;88.00;;;;;;5008491;28;20416;-70
2023/08/04 00:41:39;;;;;;;0.00;0.00;;;16.40;88.20;;;;;;5002681;28;20053;-70
2023/08/04 00:44:04;;;;;;;0.00;0.00;;;16.30;88.60;;;;;;4991203;28;20050;-70
2023/08/04 00:46:31;;;;;;;0.00;0.00;;;16.30;88.90;;;;;;5005104;28;20461;-70
2023/08/04 00:48:58;;;;;;;0.17;0.17;;;16.30;89.10;;;;;;5010196;28;20073;-70
2023/08/04 00:51:24;;;;;;;0.00;0.00;;;16.20;89.20;;;;;;5010418;28;20085;-71
2023/08/04 00:53:50;;;;;;;0.03;0.03;;;16.20;89.20;;;;;;5010621;28;20085;-70
2023/08/04 00:56:15;;;;;;;0.00;0.00;;;16.30;89.00;;;;;;5010243;28;20045;-70
2023/08/04 00:58:41;;;;;;;0.00;0.00;;;16.30;89.00;;;;;;5010059;28;20045;-70
2023/08/04 01:01:07;;;;;;;0.00;0.00;;;16.20;89.10;;;;;;4995380;28;20407;-70
2023/08/04 01:03:33;;;;;;;0.00;0.00;;;16.10;89.20;;;;;;5000788;28;20042;-70
2023/08/04 01:06:29;;;;;;;0.00;0.00;;;16.10;89.20;;;;;;4997664;28;20462;-71
2023/08/04 01:09:05;;;;;;;0.00;0.00;;;16.20;89.10;;;;;;4984876;28;20069;-71
2023/08/04 01:11:40;;;;;;;0.00;0.00;;;16.20;89.10;;;;;;5007912;28;20108;-71
2023/08/04 01:14:06;;;;;;;0.00;0.00;;;16.20;89.00;;;;;;5010242;28;20064;-71
2023/08/04 01:16:32;;;;;;;0.00;0.00;;;16.30;89.00;;;;;;5009611;28;20519;-71
2023/08/04 01:18:58;;;;;;;0.00;0.00;;;16.20;89.00;;;;;;5010475;28;20050;-71
2023/08/04 01:21:24;;;;;;;0.00;0.00;;;16.20;89.00;;;;;;5009854;28;20056;-71
2023/08/04 01:23:49;;;;;;;0.10;0.10;;;16.20;89.00;;;;;;5010104;28;20050;-71
2023/08/04 01:26:15;;;;;;;0.00;0.00;;;16.10;88.60;;;;;;5006749;28;20153;-71
2023/08/04 01:28:42;;;;;;;0.00;0.00;;;16.20;88.80;;;;;;5007753;28;20041;-71
2023/08/04 01:31:08;;;;;;;0.00;0.00;;;16.10;88.80;;;;;;5003891;28;20384;-71
2023/08/04 01:33:35;;;;;;;0.00;0.00;;;16.10;88.70;;;;;;4995202;28;20050;-71
2023/08/04 01:36:01;;;;;;;0.00;0.00;;;16.10;88.60;;;;;;4996559;28;20120;-71
2023/08/04 01:38:26;;;;;;;1.45;0.85;;;16.10;88.50;;;;;;5007636;28;20136;-71
2023/08/04 01:40:52;;;;;;;0.00;0.00;;;16.10;88.40;;;;;;4995860;28;20072;-71
2023/08/04 01:43:20;;;;;;;0.00;0.00;;;16.10;88.40;;;;;;4989786;28;20042;-71
2023/08/04 01:45:45;;;;;;;0.00;0.00;;;16.10;88.30;;;;;;4994605;28;20053;-70
2023/08/04 01:48:11;;;;;;;0.10;0.10;;;16.00;88.20;;;;;;4989655;28;20053;-71
2023/08/04 01:50:36;;;;;;;0.00;0.00;;;16.00;88.50;;;;;;4996859;28;20072;-71
2023/08/04 01:53:02;;;;;;;0.00;0.00;;;16.00;88.60;;;;;;5007248;28;20072;-71
2023/08/04 01:55:28;;;;;;;0.00;0.00;;;15.90;88.90;;;;;;5007399;28;20108;-71
2023/08/04 01:57:53;;;;;;;0.00;0.00;;;15.90;89.10;;;;;;4990391;28;20046;-71
2023/08/04 02:00:19;;;;;;;0.00;0.00;;;16.00;89.20;;;;;;5002095;28;20578;-71
2023/08/04 02:02:44;;;;;;;0.00;0.00;;;15.90;89.20;;;;;;4990928;28;20053;-71
2023/08/04 02:05:10;;;;;;;0.00;0.00;;;15.90;89.20;;;;;;4995170;28;20042;-71
2023/08/04 02:07:36;;;;;;;0.00;0.00;;;15.90;89.20;;;;;;5005783;28;20092;-71
2023/08/04 02:10:03;;;;;;;0.00;0.00;;;15.90;89.10;;;;;;5007404;28;20034;-71
2023/08/04 02:12:28;;;;;;;0.00;0.00;;;15.90;89.50;;;;;;4994702;28;20058;-70
2023/08/04 02:14:54;;;;;;;0.00;0.00;;;15.80;89.50;;;;;;4994553;28;20045;-71
2023/08/04 02:17:19;;;;;;;0.00;0.00;;;15.80;89.50;;;;;;4996399;28;20045;-71
2023/08/04 02:19:45;;;;;;;0.00;0.00;;;15.80;89.50;;;;;;4993075;28;20046;-71
2023/08/04 02:22:10;;;;;;;0.00;0.00;;;15.80;89.40;;;;;;5001595;28;20049;-71
2023/08/04 02:24:36;;;;;;;0.00;0.00;;;15.90;89.30;;;;;;5001594;28;20477;-71
2023/08/04 02:27:02;;;;;;;0.00;0.00;;;15.90;89.20;;;;;;4999507;28;20895;-71
2023/08/04 02:29:28;;;;;;;0.00;0.00;;;15.80;89.10;;;;;;4997913;28;20058;-71
2023/08/04 02:31:53;;;;;;;0.17;0.17;;;15.80;89.10;;;;;;4999786;28;20044;-71
2023/08/04 02:34:19;;;;;;;0.00;0.00;;;15.80;89.10;;;;;;4991121;28;20100;-71
2023/08/04 02:36:45;;;;;;;0.00;0.00;;;15.80;89.00;;;;;;5003385;28;20054;-71
2023/08/04 02:39:10;;;;;;;0.00;0.00;;;15.80;89.00;;;;;;4988833;28;20042;-71
2023/08/04 02:41:36;;;;;;;0.00;0.00;;;15.90;89.00;;;;;;4990003;28;20895;-71
2023/08/04 02:44:03;;;;;;;0.00;0.00;;;15.90;88.90;;;;;;4996445;28;20495;-71
2023/08/04 02:46:29;;;;;;;0.00;0.00;;;15.90;89.00;;;;;;4996530;28;20092;-71
2023/08/04 02:48:55;;;;;;;0.00;0.00;;;15.90;89.00;;;;;;4994453;28;20459;-71
2023/08/04 02:51:21;;;;;;;0.00;0.00;;;15.90;89.00;;;;;;5002853;28;20049;-71
2023/08/04 02:53:47;;;;;;;0.00;0.00;;;15.90;89.00;;;;;;4988374;28;20495;-71
2023/08/04 02:56:14;;;;;;;0.00;0.00;;;16.00;89.00;;;;;;4999361;28;20040;-71
2023/08/04 02:58:42;;;;;;;0.00;0.00;;;15.90;89.00;;;;;;5001984;28;20046;-70
2023/08/04 03:01:08;;;;;;;0.20;0.20;;;16.00;89.00;;;;;;5001475;28;20038;-69
2023/08/04 03:03:34;;;;;;;0.00;0.00;;;15.90;89.30;;;;;;5003753;28;20038;-69
2023/08/04 03:06:01;;;;;;;0.00;0.00;;;15.90;89.40;;;;;;4992600;28;20439;-70
2023/08/04 03:08:27;;;;;;;0.00;0.00;;;16.00;89.40;;;;;;4993510;28;20042;-70
2023/08/04 03:10:53;;;;;;;0.15;0.15;;;16.00;89.40;;;;;;5006866;28;20046;-69
2023/08/04 03:13:18;;;;;;;0.00;0.00;;;16.00;89.40;;;;;;4999156;28;20052;-69
2023/08/04 03:15:44;;;;;;;0.00;0.00;;;16.00;89.40;;;;;;5003888;28;20053;-69
2023/08/04 03:18:09;;;;;;;0.00;0.00;;;15.90;89.30;;;;;;5001348;28;20422;-69
2023/08/04 03:20:37;;;;;;;0.00;0.00;;;15.90;89.30;;;;;;5002320;28;20054;-69
2023/08/04 03:23:03;;;;;;;0.00;0.00;;;15.90;89.40;;;;;;5005622;28;20034;-69
2023/08/04 03:25:29;;;;;;;0.00;0.00;;;15.90;89.60;;;;;;5003171;28;20057;-69
2023/08/04 03:27:55;;;;;;;0.00;0.00;;;15.80;89.60;;;;;;5003364;28;20050;-69
2023/08/04 03:30:20;;;;;;;0.00;0.00;;;15.80;89.70;;;;;;4999744;28;20170;-70
2023/08/04 03:32:46;;;;;;;0.00;0.00;;;15.80;89.90;;;;;;4995411;28;20100;-69
2023/08/04 03:35:12;;;;;;;0.00;0.00;;;15.80;89.80;;;;;;5009775;28;20041;-70
2023/08/04 03:37:39;;;;;;;0.00;0.00;;;15.80;89.80;;;;;;4998960;28;20506;-70
2023/08/04 03:40:05;;;;;;;0.00;0.00;;;15.80;89.80;;;;;;5008958;28;20061;-70
2023/08/04 03:42:31;;;;;;;0.00;0.00;;;15.80;89.80;;;;;;5008532;28;20089;-69
2023/08/04 03:44:56;;;;;;;0.00;0.00;;;15.70;90.10;;;;;;5007072;28;20089;-69
2023/08/04 03:47:22;;;;;;;0.00;0.00;;;15.80;90.20;;;;;;5004242;28;20073;-69
2023/08/04 03:49:47;;;;;;;0.00;0.00;;;15.80;90.10;;;;;;4999471;28;20042;-69
2023/08/04 03:52:13;;;;;;;0.00;0.00;;;15.70;90.10;;;;;;5006793;28;20116;-69
2023/08/04 03:54:39;;;;;;;0.00;0.00;;;15.70;90.10;;;;;;5005030;28;20462;-69
2023/08/04 03:57:05;;;;;;;0.00;0.00;;;15.70;90.20;;;;;;5009319;28;20030;-70
2023/08/04 03:59:31;;;;;;;0.00;0.00;;;15.80;90.30;;;;;;5009342;28;20872;-70
2023/08/04 04:01:56;;;;;;;0.00;0.00;;;15.80;90.40;;;;;;5008450;28;20046;-69
2023/08/04 04:04:22;;;;;;;0.00;0.00;;;15.80;90.30;;;;;;5009437;28;20050;-69
2023/08/04 04:06:47;;;;;;;0.00;0.00;;;15.80;90.40;;;;;;5009194;28;20045;-69
2023/08/04 04:09:14;;;;;;;0.00;0.00;;;15.80;90.80;;;;;;4995559;28;20578;-69
2023/08/04 04:11:40;;;;;;;0.00;0.00;;;15.80;91.00;;;;;;5009072;28;20170;-69
2023/08/04 04:14:05;;;;;;;0.00;0.00;;;15.70;91.00;;;;;;5001912;28;20126;-69
2023/08/04 04:16:31;;;;;;;0.00;0.00;;;15.70;91.20;;;;;;5004466;28;20422;-69
2023/08/04 04:18:56;;;;;;;0.00;0.00;;;15.70;91.20;;;;;;4992871;28;20047;-69
2023/08/04 04:21:22;;;;;;;0.00;0.00;;;15.70;91.30;;;;;;4997803;28;20038;-69
2023/08/04 04:23:47;;;;;;;0.00;0.00;;;15.70;91.30;;;;;;4993853;28;20053;-69
2023/08/04 04:26:14;;;;;;;0.00;0.00;;;15.70;91.30;;;;;;4994164;28;20053;-69
2023/08/04 04:28:40;;;;;;;0.00;0.00;;;15.70;91.30;;;;;;4996880;28;20133;-69
2023/08/04 04:31:05;;;;;;;0.00;0.00;;;15.70;91.20;;;;;;4993721;28;20697;-69
2023/08/04 04:33:31;;;;;;;0.08;0.08;;;15.80;91.20;;;;;;5008062;28;20060;-69
2023/08/04 04:35:57;;;;;;;0.00;0.00;;;15.80;91.10;;;;;;4999799;28;20038;-69
2023/08/04 04:38:28;;;;;;;0.00;0.00;;;15.80;91.10;;;;;;5007833;28;20494;-70
2023/08/04 04:41:01;;;;;;;0.00;0.00;;;15.90;91.00;;;;;;5005121;28;20499;-70
2023/08/04 04:43:27;;;;;;;0.00;0.00;;;15.90;90.90;;;;;;4995916;28;20054;-70
2023/08/04 04:45:54;;;;;;;0.00;0.00;;;15.90;90.90;;;;;;4995160;28;20120;-70
2023/08/04 04:48:20;;;;;;;0.00;0.00;;;15.90;90.80;;;;;;5004840;28;20041;-70
2023/08/04 04:50:46;;;;;;;0.00;0.00;;;16.00;90.70;;;;;;5008142;28;20052;-70
2023/08/04 04:53:13;;;;;;;0.00;0.00;;;16.00;90.60;;;;;;5007720;28;20775;-70
2023/08/04 04:55:38;;;;;;;0.00;0.00;;;16.00;90.50;;;;;;4998034;28;20050;-70
2023/08/04 04:58:04;;;;;;;0.00;0.00;;;16.00;90.50;;;;;;4989989;28;20062;-70
2023/08/04 05:00:31;;;;;;;0.00;0.00;;;16.10;90.50;;;;;;4997714;28;20054;-70
2023/08/04 05:02:57;;;;;;;0.00;0.00;;;16.10;90.40;;;;;;4990065;28;20045;-70
2023/08/04 05:05:23;;;;;;;0.00;0.00;;;16.10;90.30;;;;;;4996427;28;20050;-70
2023/08/04 05:07:48;;;;;;;0.00;0.00;;;16.10;90.30;;;;;;5008594;28;20041;-70
2023/08/04 05:10:14;;;;;;;0.20;0.20;;;16.10;90.20;;;;;;5002621;28;20129;-70
2023/08/04 05:12:39;;;;;;;0.00;0.00;;;16.10;90.10;;;;;;5005693;28;20034;-70
2023/08/04 05:15:05;;;;;;;0.00;0.00;;;16.20;90.10;;;;;;5002258;28;20136;-70
2023/08/04 05:17:31;;;;;;;0.00;0.00;;;16.20;90.00;;;;;;5004308;28;20558;-70
2023/08/04 05:19:56;;;;;;;0.00;0.00;;;16.20;90.00;;;;;;5002593;28;20125;-70
2023/08/04 05:22:22;;;;;;;0.00;0.00;;;16.20;89.90;;;;;;5001310;28;20250;-70
2023/08/04 05:24:48;;;;;;;0.00;0.00;;;16.20;89.90;;;;;;5004218;28;20141;-69
2023/08/04 05:27:14;;;;;;;0.25;0.25;;;16.20;89.70;;;;;;5006580;28;20054;-69
2023/08/04 05:29:39;;;;;;;0.00;0.00;;;16.20;89.90;;;;;;4990691;28;20044;-70
2023/08/04 05:32:05;;;;;;;0.00;0.00;;;16.20;89.90;;;;;;5009613;28;20495;-70
2023/08/04 05:34:30;;;;;;;0.00;0.00;;;16.20;89.90;;;;;;5009836;28;20751;-70
2023/08/04 05:36:56;;;;;;;0.00;0.00;;;16.20;89.90;;;;;;5007965;28;20034;-70
2023/08/04 05:39:22;;;;;;;0.00;0.00;;;16.30;89.90;;;;;;5008865;28;20045;-70
2023/08/04 05:41:47;;;;;;;0.00;0.00;;;16.30;89.90;;;;;;5009158;28;20060;-69
2023/08/04 05:44:13;;;;;;;0.00;0.00;;;16.30;89.80;;;;;;5005054;28;20041;-69
2023/08/04 05:46:39;;;;;;;0.00;0.00;;;16.40;89.70;;;;;;5009628;28;20034;-69
2023/08/04 05:49:05;;;;;;;0.00;0.00;;;16.40;89.60;;;;;;5007299;28;20034;-69
2023/08/04 05:51:31;;;;;;;0.00;0.00;;;16.40;89.50;;;;;;4999703;28;20105;-69
2023/08/04 05:53:56;;;;;;;0.00;0.00;;;16.40;89.30;;;;;;5008300;28;20038;-69
2023/08/04 05:56:22;;;;;;;0.00;0.00;;;16.40;89.20;;;;;;5005425;28;20038;-70
2023/08/04 05:58:47;;;;;;;0.00;0.00;;;16.50;89.30;;;;;;5008528;28;20045;-70
2023/08/04 06:01:13;;;;;;;0.00;0.00;;;16.50;89.30;;;;;;5008641;28;20042;-70
2023/08/04 06:03:38;;;;;;;0.00;0.00;;;16.50;89.30;;;;;;4992324;28;20070;-71
2023/08/04 06:06:04;;;;;;;0.00;0.00;;;16.60;89.30;;;;;;5006827;28;20041;-70
2023/08/04 06:08:29;;;;;;;0.00;0.00;;;16.60;89.30;;;;;;4996459;28;20057;-70
2023/08/04 06:10:55;;;;;;;0.00;0.00;;;16.50;89.10;;;;;;4999820;28;20045;-71
2023/08/04 06:13:21;;;;;;;0.00;0.00;;;16.60;89.20;;;;;;5005767;28;20054;-71
2023/08/04 06:15:47;;;;;;;0.00;0.00;;;16.50;89.10;;;;;;4996895;28;20562;-71
2023/08/04 06:18:13;;;;;;;0.00;0.00;;;16.60;89.30;;;;;;4983490;28;20050;-71
2023/08/04 06:20:39;;;;;;;0.00;0.00;;;16.60;89.30;;;;;;5008681;28;20426;-71
2023/08/04 06:23:05;;;;;;;0.00;0.00;;;16.60;89.40;;;;;;5009078;28;20038;-73
2023/08/04 06:25:31;;;;;;;0.00;0.00;;;16.60;89.50;;;;;;5007654;28;20422;-72
2023/08/04 06:27:58;;;;;;;0.00;0.00;;;16.90;89.50;;;;;;5004489;28;20049;-71
2023/08/04 06:30:25;;;;;;;0.00;0.00;;;17.10;89.30;;;;;;5007530;28;20046;-73
2023/08/04 06:32:51;;;;;;;0.00;0.00;;;17.10;88.90;;;;;;5007594;28;20491;-70
2023/08/04 06:35:16;;;;;;;0.10;0.10;;;17.10;88.50;;;;;;5007818;28;20061;-70
2023/08/04 06:37:42;;;;;;;0.00;0.00;;;17.10;88.10;;;;;;5008916;28;20148;-70
2023/08/04 06:40:09;;;;;;;0.35;0.30;;;17.00;87.30;;;;;;5008444;28;20046;-71
2023/08/04 06:42:34;;;;;;;0.00;0.00;;;17.10;87.30;;;;;;5006599;28;20556;-71
2023/08/04 06:45:01;;;;;;;0.00;0.00;;;17.10;87.40;;;;;;5007292;28;20049;-75
2023/08/04 06:47:27;;;;;;;0.00;0.00;;;17.10;87.10;;;;;;5007450;28;20060;-71
2023/08/04 06:49:52;;;;;;;0.00;0.00;;;17.10;86.80;;;;;;5009995;28;20442;-71
2023/08/04 06:52:18;;;;;;;0.00;0.00;;;17.10;86.90;;;;;;5006274;28;20652;-71
2023/08/04 06:54:43;;;;;;;0.00;0.00;;;17.20;87.10;;;;;;5002998;28;20054;-70
2023/08/04 06:57:09;;;;;;;0.00;0.00;;;17.20;86.60;;;;;;5002017;28;20046;-70
2023/08/04 06:59:35;;;;;;;0.00;0.00;;;17.20;86.40;;;;;;5008218;28;20179;-70
2023/08/04 07:02:00;;;;;;;0.13;0.13;;;17.20;85.80;;;;;;5007275;28;20077;-71
2023/08/04 07:04:26;;;;;;;0.00;0.00;;;17.00;86.30;;;;;;5004458;28;20084;-70
2023/08/04 07:06:53;;;;;;;0.00;0.00;;;16.90;86.30;;;;;;5006023;28;20100;-70
2023/08/04 07:09:18;;;;;;;0.00;0.00;;;16.60;86.20;;;;;;5008220;28;20053;-70
2023/08/04 07:11:44;;;;;;;0.00;0.00;;;16.40;87.20;;;;;;5007887;28;20072;-70
2023/08/04 07:14:09;;;;;;;0.00;0.00;;;16.30;87.20;;;;;;5007901;28;20095;-68
2023/08/04 07:16:35;;;;;;;0.00;0.00;;;16.30;87.40;;;;;;5005427;28;20045;-66
2023/08/04 07:19:00;;;;;;;0.00;0.00;;;16.30;87.60;;;;;;5007262;28;20091;-68
2023/08/04 07:21:26;;;;;;;0.00;0.00;;;16.30;87.70;;;;;;5003801;28;20041;-62
2023/08/04 07:23:52;;;;;;;0.00;0.00;;;16.50;87.90;;;;;;5007703;28;20056;-63
2023/08/04 07:26:17;;;;;;;0.00;0.00;;;16.50;87.40;;;;;;5010211;28;20107;-62
2023/08/04 07:28:43;;;;;;;0.00;0.00;;;16.50;87.60;;;;;;5008256;28;20038;-62
2023/08/04 07:31:09;;;;;;;0.00;0.00;;;16.50;87.70;;;;;;5008417;28;20053;-62
2023/08/04 07:33:37;;;;;;;0.00;0.00;;;16.60;87.70;;;;;;5008844;28;20046;-69
2023/08/04 07:36:03;;;;;;;0.00;0.00;;;16.60;87.80;;;;;;5006803;28;20049;-68
2023/08/04 07:38:30;;;;;;;0.00;0.00;;;16.60;87.60;;;;;;5004374;28;20124;-68
2023/08/04 07:40:56;;;;;;;0.00;0.00;;;16.60;87.90;;;;;;5005761;28;20494;-68
2023/08/04 07:43:23;;;;;;;0.00;0.00;;;16.70;87.70;;;;;;5006823;28;20044;-68
2023/08/04 07:45:49;;;;;;;0.00;0.00;;;16.80;88.10;;;;;;5006374;28;21203;-68
2023/08/04 07:48:14;;;;;;;0.00;0.00;;;17.00;87.90;;;;;;5007682;28;20042;-69
2023/08/04 07:50:43;;;;;;;0.00;0.00;;;17.00;87.70;;;;;;5007409;28;20072;-69
2023/08/04 07:53:08;;;;;;;0.05;0.05;;;17.10;87.80;;;;;;5007097;28;20121;-68
2023/08/04 07:55:36;;;;;;;0.00;0.00;;;17.10;87.20;;;;;;5006853;28;20180;-68
2023/08/04 07:58:02;;;;;;;0.00;0.00;;;17.10;86.30;;;;;;5005608;28;20129;-68
2023/08/04 08:00:28;;;;;;;0.00;0.00;;;17.10;86.10;;;;;;5006086;28;20138;-69
2023/08/04 08:02:53;;;;;;;0.00;0.00;;;17.20;85.70;;;;;;5005448;28;20786;-68
2023/08/04 08:05:19;;;;;;;0.00;0.00;;;17.20;85.60;;;;;;5005588;28;20853;-69
2023/08/04 08:07:44;;;;;;;0.00;0.00;;;17.30;85.00;;;;;;5004895;28;20049;-68
2023/08/04 08:10:10;;;;;;;0.00;0.00;;;17.30;85.20;;;;;;5005356;28;20554;-69
2023/08/04 08:12:36;;;;;;;0.00;0.00;;;17.30;85.60;;;;;;5003962;28;20141;-68
2023/08/04 08:15:04;;;;;;;0.00;0.00;;;17.40;85.50;;;;;;5004876;28;20054;-69
2023/08/04 08:17:30;;;;;;;0.00;0.00;;;17.50;85.60;;;;;;5005873;28;20486;-68
2023/08/04 08:19:56;;;;;;;0.00;0.00;;;17.50;85.80;;;;;;5006968;28;20109;-68
2023/08/04 08:22:21;;;;;;;0.10;0.10;;;17.50;85.70;;;;;;5006598;28;20053;-69
2023/08/04 08:24:48;;;;;;;0.00;0.00;;;17.60;85.70;;;;;;5005931;28;20057;-68
2023/08/04 08:27:13;;;;;;;0.00;0.00;;;17.60;85.20;;;;;;5004597;28;20185;-72
2023/08/04 08:29:41;;;;;;;0.00;0.00;;;17.70;85.10;;;;;;5003829;28;20543;-69
2023/08/04 08:32:07;;;;;;;0.00;0.00;;;17.70;85.10;;;;;;5005865;28;20584;-69
2023/08/04 08:34:32;;;;;;;0.00;0.00;;;17.80;84.00;;;;;;5004165;28;20545;-68
2023/08/04 08:36:58;;;;;;;0.00;0.00;;;17.80;82.60;;;;;;5007418;28;20042;-68
2023/08/04 08:39:23;;;;;;;0.22;0.22;;;17.70;81.60;;;;;;5004388;28;20040;-69
2023/08/04 08:41:49;;;;;;;0.00;0.00;;;17.80;81.70;;;;;;5004725;28;20107;-69
2023/08/04 08:44:15;;;;;;;0.00;0.00;;;17.80;81.00;;;;;;5003872;28;20727;-68
2023/08/04 08:46:40;;;;;;;0.00;0.00;;;17.80;80.80;;;;;;5006664;28;20394;-69
2023/08/04 08:49:07;;;;;;;0.00;0.00;;;18.00;81.10;;;;;;5005133;28;20125;-69
2023/08/04 08:51:36;;;;;;;0.00;0.00;;;18.00;81.70;;;;;;5005421;28;20042;-69
2023/08/04 08:54:03;;;;;;;0.00;0.00;;;18.00;80.90;;;;;;5006190;28;20068;-69
2023/08/04 08:56:29;;;;;;;0.00;0.00;;;18.10;80.60;;;;;;5003668;28;21123;-69
2023/08/04 08:58:55;;;;;;;0.00;0.00;;;18.10;81.40;;;;;;5004106;28;20107;-68
2023/08/04 09:01:21;;;;;;;0.00;0.00;;;18.10;81.90;;;;;;4988950;28;20034;-68
2023/08/04 09:03:46;;;;;;;0.00;0.00;;;18.10;80.10;;;;;;5006824;28;20038;-68
2023/08/04 09:06:12;;;;;;;0.00;0.00;;;18.10;80.40;;;;;;5004784;28;20139;-76
2023/08/04 09:08:38;;;;;;;0.00;0.00;;;18.20;81.10;;;;;;5004470;28;20050;-68
2023/08/04 09:11:04;;;;;;;0.30;0.30;;;18.20;81.20;;;;;;5004988;28;20056;-68
2023/08/04 09:13:30;;;;;;;0.00;0.00;;;18.10;80.70;;;;;;5005392;28;20399;-68
2023/08/04 09:15:58;;;;;;;0.08;0.08;;;18.10;81.50;;;;;;5005874;28;20038;-68
2023/08/04 09:18:28;;;;;;;0.00;0.00;;;18.10;80.80;;;;;;5007118;28;20050;-68
2023/08/04 09:21:09;;;;;;;0.00;0.00;;;18.10;80.40;;;;;;5006586;28;20073;-68
2023/08/04 09:23:35;;;;;;;0.00;0.00;;;18.10;80.30;;;;;;5006377;28;20510;-68
2023/08/04 09:26:02;;;;;;;0.00;0.00;;;18.10;80.00;;;;;;5006341;28;20396;-68
2023/08/04 09:28:27;;;;;;;0.00;0.00;;;18.30;80.40;;;;;;5006009;28;20104;-68
2023/08/04 09:31:08;;;;;;;0.40;0.40;;;18.50;80.30;;;;;;5005120;28;20038;-69
2023/08/04 09:33:37;;;;;;;0.00;0.00;;;18.60;79.50;;;;;;5006187;28;20486;-69
2023/08/04 09:36:07;;;;;;;0.00;0.00;;;18.80;80.30;;;;;;5005960;28;20123;-68
2023/08/04 09:38:34;;;;;;;0.00;0.00;;;19.00;80.10;;;;;;5007109;28;20050;-68
2023/08/04 09:41:01;;;;;;;4.28;1.15;;;19.00;78.80;;;;;;5007806;28;20188;-68
2023/08/04 09:43:27;;;;;;;0.00;0.00;;;19.00;76.30;;;;;;4989690;28;20490;-68
2023/08/04 09:46:02;;;;;;;0.00;0.00;;;18.90;76.80;;;;;;4989769;28;20030;-68
2023/08/04 09:48:28;;;;;;;0.00;0.00;;;18.90;76.70;;;;;;5007291;28;20053;-68
2023/08/04 09:51:23;;;;;;;0.00;0.00;;;19.00;76.60;;;;;;5007129;28;20050;-68
2023/08/04 09:53:50;;;;;;;0.00;0.00;;;19.10;77.60;;;;;;4997578;28;20144;-68
2023/08/04 09:56:17;;;;;;;0.00;0.00;;;19.10;76.90;;;;;;5007521;28;20099;-68
2023/08/04 09:58:44;;;;;;;0.00;0.00;;;19.20;76.70;;;;;;5005155;28;20097;-69
2023/08/04 10:01:11;;;;;;;0.00;0.00;;;19.30;76.10;;;;;;5006124;28;20046;-67
2023/08/04 10:03:39;;;;;;;0.00;0.00;;;19.20;75.90;;;;;;5006990;28;20111;-68
2023/08/04 10:06:06;;;;;;;0.00;0.00;;;19.30;76.00;;;;;;5007681;28;20061;-68
2023/08/04 10:08:33;;;;;;;0.03;0.03;;;19.40;75.80;;;;;;5007465;28;20391;-69
2023/08/04 10:10:59;;;;;;;0.00;0.00;;;19.40;76.50;;;;;;5006624;28;20107;-69
2023/08/04 10:13:27;;;;;;;0.00;0.00;;;19.30;75.30;;;;;;5006858;28;20157;-68
2023/08/04 10:15:55;;;;;;;0.00;0.00;;;19.30;75.90;;;;;;5007309;28;20089;-68
2023/08/04 10:18:22;;;;;;;0.00;0.00;;;19.10;75.50;;;;;;5006359;28;20045;-68
2023/08/04 10:20:49;;;;;;;0.00;0.00;;;19.00;75.30;;;;;;5007596;28;20123;-67
2023/08/04 10:23:15;;;;;;;0.00;0.00;;;18.80;75.10;;;;;;5006376;28;20849;-68
2023/08/04 10:25:53;;;;;;;0.00;0.00;;;18.80;75.10;;;;;;5010747;28;20081;-68
2023/08/04 10:28:19;;;;;;;0.00;0.00;;;18.90;74.80;;;;;;5011295;28;20052;-69
2023/08/04 10:30:44;;;;;;;0.00;0.00;;;19.00;75.40;;;;;;5011461;28;20042;-68
2023/08/04 10:33:10;;;;;;;0.00;0.00;;;19.10;76.00;;;;;;5009295;28;20038;-68
2023/08/04 10:36:14;;;;;;;0.00;0.00;;;19.20;76.50;;;;;;5009994;28;20038;-68
2023/08/04 10:38:47;;;;;;;0.00;0.00;;;19.30;75.60;;;;;;5011275;28;20038;-68
2023/08/04 10:41:14;;;;;;;0.13;0.13;;;19.20;75.40;;;;;;5006092;28;20050;-68
2023/08/04 10:43:40;;;;;;;0.00;0.00;;;19.10;74.40;;;;;;5007848;28;20069;-68
2023/08/04 10:46:13;;;;;;;0.00;0.00;;;19.00;74.40;;;;;;5009674;28;20038;-68
2023/08/04 10:48:40;;;;;;;0.00;0.00;;;19.00;75.40;;;;;;5008300;28;20465;-68
2023/08/04 10:51:08;;;;;;;0.00;0.00;;;19.10;76.30;;;;;;5009719;28;20057;-68
2023/08/04 10:53:34;;;;;;;0.00;0.00;;;19.10;76.10;;;;;;5008772;28;20048;-68
2023/08/04 10:56:02;;;;;;;0.28;0.28;;;19.10;74.50;;;;;;5006601;28;20038;-68
2023/08/04 10:58:28;;;;;;;0.00;0.00;;;19.00;72.90;;;;;;5009541;28;20041;-68
2023/08/04 11:00:55;;;;;;;0.00;0.00;;;19.00;74.60;;;;;;5011540;28;20073;-69
2023/08/04 11:03:26;;;;;;;0.05;0.05;;;19.10;75.10;;;;;;5009664;28;20140;-68
2023/08/04 11:05:53;;;;;;;0.00;0.00;;;19.20;74.30;;;;;;5008426;28;20510;-68
2023/08/04 11:08:20;;;;;;;0.00;0.00;;;19.20;72.90;;;;;;5009360;28;20487;-68
2023/08/04 11:10:57;;;;;;;0.00;0.00;;;19.20;73.50;;;;;;5009211;28;20042;-68
2023/08/04 11:13:24;;;;;;;0.00;0.00;;;19.10;73.80;;;;;;5009890;28;20121;-68
2023/08/04 11:15:50;;;;;;;0.15;0.15;;;19.10;74.80;;;;;;5009586;28;20042;-68
2023/08/04 11:18:23;;;;;;;0.00;0.00;;;19.00;74.90;;;;;;5009178;28;20042;-68
2023/08/04 11:20:48;;;;;;;0.00;0.00;;;19.00;74.80;;;;;;5009347;28;20034;-68
2023/08/04 11:23:14;;;;;;;0.00;0.00;;;19.10;75.30;;;;;;5009523;28;20399;-68
2023/08/04 11:25:40;;;;;;;0.00;0.00;;;19.30;75.40;;;;;;5004387;28;20049;-70
2023/08/04 11:28:07;;;;;;;0.10;0.10;;;19.50;74.80;;;;;;5006335;28;20668;-68
2023/08/04 11:30:36;;;;;;;0.00;0.00;;;19.50;73.40;;;;;;5007275;28;20041;-68
2023/08/04 11:33:07;;;;;;;0.00;0.00;;;19.60;73.40;;;;;;5008373;28;20037;-68
2023/08/04 11:35:33;;;;;;;0.00;0.00;;;19.70;74.60;;;;;;5007941;28;20042;-68
2023/08/04 11:38:05;;;;;;;0.00;0.00;;;19.80;74.00;;;;;;5006824;28;20125;-68
2023/08/04 11:40:31;;;;;;;0.00;0.00;;;19.90;74.10;;;;;;5009158;28;20141;-68
2023/08/04 11:43:00;;;;;;;0.00;0.00;;;19.80;73.50;;;;;;5007572;28;20095;-67
2023/08/04 11:45:29;;;;;;;0.00;0.00;;;19.70;73.70;;;;;;5007014;28;20120;-67
2023/08/04 11:47:58;;;;;;;0.00;0.00;;;19.60;73.50;;;;;;5007874;28;20081;-67
2023/08/04 11:50:25;;;;;;;0.00;0.00;;;19.50;73.90;;;;;;5007178;28;20133;-67
2023/08/04 11:52:52;;;;;;;0.20;0.20;;;19.40;72.60;;;;;;5007817;28;20093;-67
2023/08/04 11:55:17;;;;;;;0.00;0.00;;;19.40;72.40;;;;;;5008790;28;20045;-67
2023/08/04 11:57:54;;;;;;;0.00;0.00;;;19.40;71.60;;;;;;5006185;28;20115;-67
2023/08/04 12:00:36;;;;;;;0.00;0.00;;;19.30;72.30;;;;;;5005349;28;20052;-68
2023/08/04 12:03:04;;;;;;;0.00;0.00;;;19.40;73.60;;;;;;5006562;28;20585;-68
2023/08/04 12:05:32;;;;;;;0.00;0.00;;;19.50;74.40;;;;;;5007180;28;20053;-68
2023/08/04 12:07:59;;;;;;;0.00;0.00;;;19.60;74.20;;;;;;5005448;28;20176;-67
2023/08/04 12:10:25;;;;;;;0.03;0.03;;;19.80;72.80;;;;;;5006454;28;20136;-68
2023/08/04 12:12:51;;;;;;;0.00;0.00;;;19.90;72.20;;;;;;5008071;28;20406;-67
2023/08/04 12:15:17;;;;;;;0.00;0.00;;;20.00;73.10;;;;;;5006237;28;20046;-67
2023/08/04 12:17:43;;;;;;;0.00;0.00;;;20.10;72.50;;;;;;5008322;28;20040;-68
2023/08/04 12:20:11;;;;;;;0.00;0.00;;;20.30;72.60;;;;;;5008198;28;20399;-68
2023/08/04 12:22:37;;;;;;;0.00;0.00;;;20.30;71.40;;;;;;5006436;28;20121;-67
2023/08/04 12:25:07;;;;;;;0.00;0.00;;;20.50;71.50;;;;;;5007959;28;20423;-67
2023/08/04 12:27:33;;;;;;;0.00;0.00;;;20.40;69.70;;;;;;5006661;28;20042;-67
2023/08/04 12:29:59;;;;;;;0.00;0.00;;;20.30;70.40;;;;;;5005783;28;20038;-67
2023/08/04 12:32:24;;;;;;;0.00;0.00;;;20.10;70.00;;;;;;5008203;28;20037;-67
2023/08/04 12:34:50;;;;;;;0.00;0.00;;;20.00;70.60;;;;;;5007995;28;20560;-67
2023/08/04 12:37:16;;;;;;;0.30;0.30;;;20.10;71.50;;;;;;5007634;28;20041;-67
2023/08/04 12:39:44;;;;;;;0.00;0.00;;;20.10;70.70;;;;;;5006932;28;20576;-67
2023/08/04 12:42:09;;;;;;;0.00;0.00;;;20.10;70.80;;;;;;5007950;28;20137;-67
2023/08/04 12:44:35;;;;;;;0.00;0.00;;;20.10;71.70;;;;;;5006864;28;20901;-67